createdAt,value
2017-12-15T00:00:14.608Z,13.02
2017-12-15T00:01:19.460Z,12.35
2017-12-15T00:02:22.859Z,12.55
2017-12-15T00:03:26.111Z,12.35
2017-12-15T00:04:28.610Z,15.00
2017-12-15T00:05:31.847Z,13.73
2017-12-15T00:06:34.356Z,11.27
2017-12-15T00:07:37.608Z,12.18
2017-12-15T00:08:40.102Z,11.57
2017-12-15T00:09:42.579Z,13.48
2017-12-15T00:10:45.863Z,13.20
2017-12-15T00:11:49.265Z,16.15
2017-12-15T00:12:52.002Z,15.68
2017-12-15T00:13:54.487Z,14.07
2017-12-15T00:14:57.777Z,14.75
2017-12-15T00:16:01.010Z,12.60
2017-12-15T00:17:03.483Z,11.35
2017-12-15T00:18:06.002Z,15.82
2017-12-15T00:19:08.653Z,14.38
2017-12-15T00:20:12.218Z,13.65
2017-12-15T00:21:15.696Z,11.98
2017-12-15T00:22:18.364Z,14.80
2017-12-15T00:23:20.881Z,11.05
2017-12-15T00:24:23.389Z,11.32
2017-12-15T00:26:42.440Z,15.35
2017-12-15T00:27:44.934Z,12.57
2017-12-15T00:28:48.190Z,12.37
2017-12-15T00:29:50.672Z,13.65
2017-12-15T00:30:53.170Z,12.98
2017-12-15T00:31:55.709Z,14.50
2017-12-15T00:33:11.154Z,11.90
2017-12-15T00:34:13.634Z,16.40
2017-12-15T00:35:16.120Z,19.12
2017-12-15T00:36:19.550Z,11.43
2017-12-15T00:37:22.030Z,16.55
2017-12-15T00:38:25.416Z,14.30
2017-12-15T00:39:27.967Z,13.52
2017-12-15T00:40:30.458Z,12.98
2017-12-15T00:41:33.024Z,15.70
2017-12-15T00:42:35.562Z,15.68
2017-12-15T00:43:38.037Z,21.73
2017-12-15T00:44:40.586Z,14.00
2017-12-15T00:45:43.054Z,14.13
2017-12-15T00:46:45.559Z,18.60
2017-12-15T00:47:48.087Z,13.75
2017-12-15T00:48:50.567Z,13.25
2017-12-15T00:49:53.060Z,15.07
2017-12-15T00:50:55.704Z,15.30
2017-12-15T00:51:58.518Z,14.43
2017-12-15T00:53:01.996Z,15.13
2017-12-15T00:54:04.486Z,16.33
2017-12-15T00:55:07.730Z,17.17
2017-12-15T00:56:10.215Z,13.25
2017-12-15T00:57:13.493Z,14.05
2017-12-15T00:58:16.106Z,14.18
2017-12-15T00:59:18.669Z,16.30
2017-12-15T01:00:21.185Z,17.27
2017-12-15T01:01:23.656Z,15.57
2017-12-15T01:02:26.176Z,16.52
2017-12-15T01:03:28.653Z,16.15
2017-12-15T01:04:31.120Z,21.37
2017-12-15T01:05:33.600Z,14.52
2017-12-15T01:06:36.090Z,18.33
2017-12-15T01:07:39.372Z,14.80
2017-12-15T01:08:41.855Z,14.98
2017-12-15T01:09:45.087Z,15.13
2017-12-15T01:10:47.624Z,17.15
2017-12-15T01:11:50.089Z,17.05
2017-12-15T01:12:52.589Z,14.32
2017-12-15T01:13:55.099Z,13.98
2017-12-15T01:14:59.355Z,15.43
2017-12-15T01:16:01.819Z,14.15
2017-12-15T01:17:04.327Z,17.50
2017-12-15T01:18:07.588Z,17.98
2017-12-15T01:19:10.085Z,20.25
2017-12-15T01:20:13.340Z,15.73
2017-12-15T01:21:15.861Z,15.73
2017-12-15T01:22:19.474Z,15.25
2017-12-15T01:23:21.952Z,16.12
2017-12-15T01:24:24.445Z,15.55
2017-12-15T01:25:35.225Z,15.35
2017-12-15T01:26:37.729Z,19.62
2017-12-15T01:27:40.222Z,15.80
2017-12-15T01:28:43.547Z,16.52
2017-12-15T01:29:46.082Z,19.55
2017-12-15T01:30:49.341Z,17.90
2017-12-15T01:31:55.085Z,18.55
2017-12-15T01:32:57.564Z,16.02
2017-12-15T01:34:00.832Z,15.90
2017-12-15T01:35:03.330Z,21.67
2017-12-15T01:36:06.603Z,17.10
2017-12-15T01:37:09.886Z,17.15
2017-12-15T01:38:13.160Z,17.40
2017-12-15T01:39:15.747Z,20.75
2017-12-15T01:40:19.008Z,17.58
2017-12-15T01:41:21.502Z,15.70
2017-12-15T01:42:24.751Z,17.45
2017-12-15T01:43:27.223Z,18.67
2017-12-15T01:44:29.838Z,18.30
2017-12-15T01:45:32.343Z,16.75
2017-12-15T01:46:34.819Z,16.48
2017-12-15T01:47:37.306Z,18.87
2017-12-15T01:48:45.575Z,18.20
2017-12-15T01:49:48.051Z,18.52
2017-12-15T01:50:50.524Z,19.08
2017-12-15T01:51:53.048Z,15.50
2017-12-15T01:52:56.583Z,18.30
2017-12-15T01:53:59.057Z,24.83
2017-12-15T01:55:02.292Z,16.08
2017-12-15T01:56:06.982Z,20.10
2017-12-15T01:57:10.408Z,17.75
2017-12-15T01:58:12.881Z,17.98
2017-12-15T01:59:15.431Z,21.05
2017-12-15T02:00:18.626Z,20.10
2017-12-15T02:01:21.114Z,16.52
2017-12-15T02:02:23.596Z,17.02
2017-12-15T02:03:26.836Z,14.10
2017-12-15T02:04:29.310Z,17.00
2017-12-15T02:05:31.780Z,14.38
2017-12-15T02:06:34.266Z,21.75
2017-12-15T02:07:37.528Z,17.27
2017-12-15T02:08:40.006Z,14.68
2017-12-15T02:09:44.481Z,15.48
2017-12-15T02:10:46.992Z,20.40
2017-12-15T02:11:50.433Z,17.67
2017-12-15T02:12:52.930Z,16.73
2017-12-15T02:13:56.188Z,17.50
2017-12-15T02:14:58.677Z,16.45
2017-12-15T02:16:01.149Z,16.95
2017-12-15T02:17:04.467Z,20.73
2017-12-15T02:18:12.457Z,18.33
2017-12-15T02:19:14.984Z,28.80
2017-12-15T02:20:17.460Z,18.77
2017-12-15T02:21:20.774Z,20.27
2017-12-15T02:22:23.284Z,20.00
2017-12-15T02:23:25.774Z,17.75
2017-12-15T02:24:29.022Z,18.55
2017-12-15T02:25:31.521Z,14.82
2017-12-15T02:26:34.757Z,15.77
2017-12-15T02:27:37.253Z,16.67
2017-12-15T02:28:39.720Z,15.43
2017-12-15T02:29:42.205Z,20.00
2017-12-15T02:30:45.563Z,19.27
2017-12-15T02:31:48.056Z,15.48
2017-12-15T02:32:51.509Z,19.17
2017-12-15T02:33:53.994Z,22.45
2017-12-15T02:34:56.479Z,18.55
2017-12-15T02:35:59.725Z,20.25
2017-12-15T02:37:02.248Z,21.67
2017-12-15T02:38:04.731Z,21.00
2017-12-15T02:39:07.208Z,17.23
2017-12-15T02:40:09.729Z,20.00
2017-12-15T02:41:12.978Z,21.75
2017-12-15T02:42:15.447Z,24.50
2017-12-15T02:43:17.928Z,19.35
2017-12-15T02:44:21.237Z,20.90
2017-12-15T02:45:23.746Z,17.83
2017-12-15T02:46:26.224Z,21.37
2017-12-15T02:47:28.726Z,19.65
2017-12-15T02:48:31.956Z,19.67
2017-12-15T02:49:34.432Z,17.75
2017-12-15T02:50:36.915Z,17.75
2017-12-15T02:51:40.197Z,13.77
2017-12-15T02:52:43.467Z,22.48
2017-12-15T02:53:45.961Z,22.62
2017-12-15T02:54:49.220Z,17.02
2017-12-15T02:55:51.781Z,15.57
2017-12-15T02:56:54.252Z,18.15
2017-12-15T02:57:57.513Z,14.85
2017-12-15T02:59:00.001Z,16.83
2017-12-15T03:00:02.495Z,24.17
2017-12-15T03:01:05.744Z,19.10
2017-12-15T03:02:08.229Z,16.58
2017-12-15T03:03:12.190Z,16.83
2017-12-15T03:04:14.683Z,20.83
2017-12-15T03:05:17.298Z,17.12
2017-12-15T03:06:19.768Z,18.55
2017-12-15T03:07:22.320Z,15.45
2017-12-15T03:08:24.828Z,15.45
2017-12-15T03:09:27.324Z,16.08
2017-12-15T03:10:30.620Z,14.80
2017-12-15T03:11:33.086Z,15.70
2017-12-15T03:12:36.378Z,17.27
2017-12-15T03:13:38.874Z,14.70
2017-12-15T03:14:41.362Z,16.90
2017-12-15T03:15:43.981Z,15.00
2017-12-15T03:16:46.474Z,14.80
2017-12-15T03:17:48.964Z,14.70
2017-12-15T03:18:51.432Z,17.95
2017-12-15T03:19:53.903Z,20.23
2017-12-15T03:20:56.389Z,14.52
2017-12-15T03:21:59.699Z,15.10
2017-12-15T03:23:02.221Z,19.75
2017-12-15T03:24:05.746Z,17.48
2017-12-15T03:25:08.415Z,16.85
2017-12-15T03:26:10.923Z,19.62
2017-12-15T03:27:14.398Z,20.62
2017-12-15T03:28:16.879Z,19.50
2017-12-15T03:29:19.375Z,15.23
2017-12-15T03:30:22.683Z,20.00
2017-12-15T03:31:25.210Z,23.23
2017-12-15T03:32:27.715Z,17.45
2017-12-15T03:33:30.208Z,18.98
2017-12-15T03:34:32.701Z,25.75
2017-12-15T03:35:35.361Z,17.77
2017-12-15T03:36:38.616Z,20.85
2017-12-15T03:37:41.102Z,19.83
2017-12-15T03:38:43.573Z,19.92
2017-12-15T03:39:46.088Z,16.40
2017-12-15T03:40:48.563Z,22.25
2017-12-15T03:41:51.076Z,17.05
2017-12-15T03:42:53.557Z,16.42
2017-12-15T03:43:56.803Z,24.17
2017-12-15T03:44:59.312Z,21.25
2017-12-15T03:46:02.556Z,24.23
2017-12-15T03:47:05.058Z,17.73
2017-12-15T03:48:08.308Z,25.52
2017-12-15T03:49:10.839Z,20.85
2017-12-15T03:50:13.397Z,21.25
2017-12-15T03:51:15.963Z,22.33
2017-12-15T03:52:18.486Z,19.77
2017-12-15T03:53:20.973Z,20.80
2017-12-15T03:54:24.280Z,27.40
2017-12-15T03:55:26.779Z,20.85
2017-12-15T03:56:29.312Z,25.48
2017-12-15T03:57:31.800Z,19.62
2017-12-15T03:58:34.280Z,21.12
2017-12-15T03:59:36.836Z,22.90
2017-12-15T04:00:39.334Z,24.52
2017-12-15T04:01:41.963Z,20.52
2017-12-15T04:02:44.541Z,21.27
2017-12-15T04:03:47.026Z,21.73
2017-12-15T04:04:49.496Z,23.20
2017-12-15T04:05:51.998Z,21.80
2017-12-15T04:06:54.700Z,19.92
2017-12-15T04:07:57.203Z,19.95
2017-12-15T04:08:59.674Z,25.80
2017-12-15T04:10:02.988Z,24.95
2017-12-15T04:11:05.525Z,22.33
2017-12-15T04:12:08.802Z,27.60
2017-12-15T04:13:12.106Z,19.75
2017-12-15T04:14:15.406Z,22.15
2017-12-15T04:15:17.899Z,18.33
2017-12-15T04:16:20.437Z,32.45
2017-12-15T04:17:23.985Z,19.80
2017-12-15T04:18:26.492Z,21.80
2017-12-15T04:19:30.013Z,21.08
2017-12-15T04:20:32.511Z,25.52
2017-12-15T04:21:35.793Z,24.58
2017-12-15T04:22:39.118Z,21.12
2017-12-15T04:23:41.611Z,27.50
2017-12-15T04:24:44.095Z,26.58
2017-12-15T04:25:46.670Z,22.70
2017-12-15T04:26:49.187Z,23.67
2017-12-15T04:27:51.677Z,22.50
2017-12-15T04:28:54.225Z,37.35
2017-12-15T04:29:56.730Z,24.63
2017-12-15T04:30:59.222Z,31.02
2017-12-15T04:32:02.692Z,27.23
2017-12-15T04:33:05.978Z,26.00
2017-12-15T04:34:08.454Z,21.23
2017-12-15T04:35:11.700Z,25.15
2017-12-15T04:36:14.183Z,28.83
2017-12-15T04:37:16.656Z,22.50
2017-12-15T04:38:19.932Z,22.37
2017-12-15T04:39:22.435Z,24.87
2017-12-15T04:40:24.940Z,32.53
2017-12-15T04:41:27.420Z,26.95
2017-12-15T04:42:29.898Z,21.90
2017-12-15T04:43:33.172Z,21.60
2017-12-15T04:44:35.944Z,28.08
2017-12-15T04:45:38.454Z,26.27
2017-12-15T04:46:41.891Z,26.42
2017-12-15T04:47:44.581Z,25.10
2017-12-15T04:48:48.172Z,28.20
2017-12-15T04:49:51.447Z,27.37
2017-12-15T04:50:54.725Z,23.65
2017-12-15T04:51:57.202Z,27.15
2017-12-15T04:53:00.472Z,19.73
2017-12-15T04:54:02.987Z,21.12
2017-12-15T04:55:05.480Z,27.23
2017-12-15T04:56:07.964Z,20.35
2017-12-15T04:57:10.590Z,22.30
2017-12-15T04:58:13.075Z,25.37
2017-12-15T04:59:15.580Z,20.67
2017-12-15T05:00:18.848Z,32.83
2017-12-15T05:01:21.364Z,24.20
2017-12-15T05:02:23.856Z,32.38
2017-12-15T05:03:26.393Z,29.05
2017-12-15T05:04:28.869Z,27.67
2017-12-15T05:05:31.393Z,21.20
2017-12-15T05:06:33.889Z,29.35
2017-12-15T05:07:36.454Z,23.48
2017-12-15T05:08:38.939Z,24.70
2017-12-15T05:09:41.440Z,27.67
2017-12-15T05:10:43.931Z,23.12
2017-12-15T05:11:47.183Z,24.48
2017-12-15T05:12:49.674Z,26.70
2017-12-15T05:13:52.924Z,27.37
2017-12-15T05:14:55.416Z,28.05
2017-12-15T05:16:00.015Z,33.67
2017-12-15T05:17:02.496Z,38.40
2017-12-15T05:18:05.740Z,30.40
2017-12-15T05:19:08.261Z,29.65
2017-12-15T05:20:11.711Z,29.25
2017-12-15T05:21:14.191Z,36.80
2017-12-15T05:22:16.952Z,30.35
2017-12-15T05:23:19.415Z,23.02
2017-12-15T05:24:22.677Z,28.98
2017-12-15T05:25:25.150Z,32.70
2017-12-15T05:26:27.644Z,32.58
2017-12-15T05:27:32.156Z,28.15
2017-12-15T05:28:35.431Z,29.30
2017-12-15T05:29:37.937Z,39.65
2017-12-15T05:30:40.509Z,30.12
2017-12-15T05:31:43.002Z,31.65
2017-12-15T05:32:45.504Z,28.87
2017-12-15T05:33:48.749Z,37.50
2017-12-15T05:34:51.250Z,31.60
2017-12-15T05:35:54.507Z,30.88
2017-12-15T05:36:56.981Z,32.63
2017-12-15T05:37:59.484Z,32.38
2017-12-15T05:39:02.063Z,31.40
2017-12-15T05:40:04.584Z,37.08
2017-12-15T05:41:07.108Z,38.33
2017-12-15T05:42:09.633Z,33.15
2017-12-15T05:43:12.951Z,32.10
2017-12-15T05:44:16.889Z,38.60
2017-12-15T05:45:19.543Z,34.47
2017-12-15T05:46:22.015Z,45.10
2017-12-15T05:47:25.116Z,36.67
2017-12-15T05:48:27.589Z,46.13
2017-12-15T05:49:30.841Z,37.40
2017-12-15T05:50:33.333Z,33.05
2017-12-15T05:51:35.800Z,31.05
2017-12-15T05:52:39.329Z,31.92
2017-12-15T05:53:41.834Z,38.30
2017-12-15T05:54:44.371Z,36.08
2017-12-15T05:55:46.857Z,39.78
2017-12-15T05:56:49.647Z,32.80
2017-12-15T05:57:52.126Z,35.03
2017-12-15T05:58:54.739Z,34.78
2017-12-15T05:59:57.212Z,35.13
2017-12-15T06:01:00.929Z,33.38
2017-12-15T06:02:03.406Z,36.97
2017-12-15T06:03:05.877Z,32.30
2017-12-15T06:04:08.390Z,38.25
2017-12-15T06:05:11.890Z,39.78
2017-12-15T06:06:14.376Z,33.60
2017-12-15T06:07:16.868Z,34.10
2017-12-15T06:08:20.120Z,34.38
2017-12-15T06:09:22.644Z,29.30
2017-12-15T06:10:25.137Z,32.20
2017-12-15T06:11:27.653Z,31.55
2017-12-15T06:12:30.281Z,29.70
2017-12-15T06:13:32.765Z,38.22
2017-12-15T06:14:35.283Z,33.58
2017-12-15T06:15:37.764Z,32.90
2017-12-15T06:16:40.240Z,30.62
2017-12-15T06:17:42.716Z,26.65
2017-12-15T06:18:45.187Z,31.05
2017-12-15T06:19:47.687Z,33.58
2017-12-15T06:20:51.968Z,26.45
2017-12-15T06:21:54.631Z,29.75
2017-12-15T06:22:57.145Z,34.88
2017-12-15T06:24:00.624Z,30.45
2017-12-15T06:25:03.892Z,30.83
2017-12-15T06:26:07.148Z,33.65
2017-12-15T06:27:09.643Z,29.90
2017-12-15T06:28:14.146Z,33.67
2017-12-15T06:29:17.023Z,38.70
2017-12-15T06:30:21.314Z,33.50
2017-12-15T06:31:24.188Z,39.45
2017-12-15T06:32:27.107Z,33.58
2017-12-15T06:33:29.627Z,37.88
2017-12-15T06:34:32.953Z,33.38
2017-12-15T06:35:35.444Z,42.70
2017-12-15T06:36:39.985Z,33.17
2017-12-15T06:37:42.473Z,36.53
2017-12-15T06:38:45.757Z,39.00
2017-12-15T06:39:48.832Z,34.65
2017-12-15T06:40:51.388Z,32.97
2017-12-15T06:41:53.918Z,37.83
2017-12-15T06:42:56.583Z,43.75
2017-12-15T06:43:59.125Z,35.90
2017-12-15T06:45:01.711Z,38.80
2017-12-15T06:46:04.270Z,35.00
2017-12-15T06:47:06.975Z,37.45
2017-12-15T06:48:09.527Z,37.13
2017-12-15T06:49:12.026Z,38.35
2017-12-15T06:50:14.539Z,34.75
2017-12-15T06:51:17.088Z,38.80
2017-12-15T06:52:20.331Z,31.45
2017-12-15T06:53:22.803Z,30.55
2017-12-15T06:54:25.292Z,32.50
2017-12-15T06:55:28.597Z,34.60
2017-12-15T06:56:33.072Z,33.47
2017-12-15T06:57:36.384Z,33.65
2017-12-15T06:58:39.624Z,33.03
2017-12-15T06:59:42.116Z,41.13
2017-12-15T07:00:44.603Z,31.92
2017-12-15T07:01:47.991Z,29.70
2017-12-15T07:02:51.300Z,36.90
2017-12-15T07:03:53.808Z,36.75
2017-12-15T07:04:57.288Z,36.65
2017-12-15T07:05:59.776Z,32.85
2017-12-15T07:07:02.297Z,36.50
2017-12-15T07:08:04.853Z,32.80
2017-12-15T07:10:48.961Z,29.83
2017-12-15T07:11:56.821Z,49.47
2017-12-15T07:13:00.545Z,29.83
2017-12-15T07:14:06.452Z,32.83
2017-12-15T07:15:10.136Z,32.45
2017-12-15T07:16:14.470Z,38.58
2017-12-15T07:17:18.178Z,30.15
2017-12-15T07:18:22.600Z,43.58
2017-12-15T07:19:27.639Z,32.67
2017-12-15T07:20:33.070Z,44.42
2017-12-15T07:21:38.019Z,34.25
2017-12-15T07:22:42.732Z,32.05
2017-12-15T07:23:47.680Z,34.80
2017-12-15T07:24:52.037Z,31.92
2017-12-15T07:25:56.516Z,30.58
2017-12-15T07:27:07.540Z,30.17
2017-12-15T07:28:12.852Z,28.77
2017-12-15T07:29:20.071Z,35.08
2017-12-15T07:30:27.644Z,32.03
2017-12-15T07:31:35.164Z,33.33
2017-12-15T07:32:41.565Z,34.05
2017-12-15T07:33:48.430Z,29.95
2017-12-15T07:34:55.428Z,30.52
2017-12-15T07:36:06.087Z,36.22
2017-12-15T07:37:14.933Z,25.98
2017-12-15T07:38:18.883Z,29.50
2017-12-15T07:39:23.442Z,26.60
2017-12-15T07:40:27.747Z,25.30
2017-12-15T07:41:31.638Z,26.10
2017-12-15T07:42:35.299Z,26.85
2017-12-15T07:45:16.572Z,32.75
2017-12-15T07:46:20.502Z,36.88
2017-12-15T07:47:30.479Z,27.58
2017-12-15T07:48:35.654Z,32.45
2017-12-15T07:49:39.752Z,39.70
2017-12-15T07:50:46.435Z,31.37
2017-12-15T07:52:05.138Z,28.90
2017-12-15T07:53:10.795Z,34.78
2017-12-15T07:54:19.921Z,28.35
2017-12-15T07:55:29.690Z,36.38
2017-12-15T07:56:38.758Z,32.10
2017-12-15T08:08:11.727Z,30.20
2017-12-15T08:09:16.703Z,26.02
2017-12-15T08:10:20.631Z,37.28
2017-12-15T08:11:24.514Z,31.80
2017-12-15T08:12:29.279Z,29.92
2017-12-15T08:13:33.998Z,25.48
2017-12-15T08:14:37.326Z,29.65
2017-12-15T08:15:41.741Z,28.50
2017-12-15T08:16:47.990Z,35.38
2017-12-15T08:17:53.284Z,26.70
2017-12-15T08:18:56.851Z,26.52
2017-12-15T08:20:06.993Z,28.90
2017-12-15T08:21:10.300Z,29.90
2017-12-15T08:22:16.656Z,31.35
2017-12-15T08:23:20.163Z,28.10
2017-12-15T08:24:25.847Z,26.90
2017-12-15T08:25:30.661Z,29.08
2017-12-15T08:26:40.222Z,24.20
2017-12-15T08:27:46.799Z,28.42
2017-12-15T08:28:53.740Z,31.98
2017-12-15T08:30:07.639Z,26.95
2017-12-15T08:31:14.827Z,31.90
2017-12-15T08:32:23.682Z,27.50
2017-12-15T08:33:29.774Z,30.02
2017-12-15T08:34:34.543Z,29.85
2017-12-15T08:35:38.772Z,25.85
2017-12-15T08:36:45.000Z,37.28
2017-12-15T08:37:49.861Z,30.05
2017-12-15T08:38:56.889Z,25.33
2017-12-15T08:40:01.464Z,28.10
2017-12-15T08:41:13.853Z,31.17
2017-12-15T08:42:18.682Z,23.55
2017-12-15T08:43:24.111Z,34.33
2017-12-15T08:44:29.217Z,46.65
2017-12-15T08:45:33.618Z,28.65
2017-12-15T08:46:37.709Z,24.80
2017-12-15T08:47:46.312Z,29.08
2017-12-15T08:48:50.636Z,29.40
2017-12-15T08:49:56.749Z,32.42
2017-12-15T08:51:02.136Z,29.65
2017-12-15T09:05:06.750Z,30.60
2017-12-15T09:06:10.583Z,24.17
2017-12-15T09:07:14.309Z,25.62
2017-12-15T09:08:17.791Z,25.90
2017-12-15T09:09:22.947Z,26.87
2017-12-15T09:10:27.074Z,23.90
2017-12-15T09:11:30.684Z,28.12
2017-12-15T09:12:33.954Z,35.28
2017-12-15T09:13:37.004Z,31.60
2017-12-15T09:14:40.854Z,31.77
2017-12-15T09:16:58.457Z,19.98
2017-12-15T09:18:01.783Z,23.77
2017-12-15T09:19:05.905Z,25.70
2017-12-15T09:20:09.591Z,49.13
2017-12-15T09:21:12.882Z,35.40
2017-12-15T09:22:17.855Z,24.55
2017-12-15T09:23:21.897Z,23.40
2017-12-15T09:24:27.435Z,25.05
2017-12-15T09:25:33.386Z,17.85
2017-12-15T09:26:38.812Z,26.87
2017-12-15T09:27:42.730Z,22.65
2017-12-15T09:28:46.699Z,19.87
2017-12-15T09:29:52.642Z,23.87
2017-12-15T09:31:01.612Z,26.10
2017-12-15T09:32:07.564Z,22.25
2017-12-15T09:33:15.755Z,29.50
2017-12-15T09:34:21.005Z,24.00
2017-12-15T09:35:30.150Z,16.90
2017-12-15T09:36:35.127Z,25.75
2017-12-15T09:37:40.873Z,14.93
2017-12-15T09:38:45.409Z,23.38
2017-12-15T09:39:50.884Z,26.73
2017-12-15T09:48:46.774Z,19.45
2017-12-15T09:49:51.338Z,25.48
2017-12-15T09:50:55.332Z,21.37
2017-12-15T09:52:02.257Z,29.23
2017-12-15T09:53:06.021Z,17.17
2017-12-15T09:54:10.694Z,17.92
2017-12-15T09:55:15.039Z,23.10
2017-12-15T09:56:21.135Z,17.60
2017-12-15T09:57:26.015Z,32.30
2017-12-15T09:58:30.442Z,31.98
2017-12-15T09:59:34.676Z,24.95
2017-12-15T10:00:39.833Z,21.90
2017-12-15T10:01:44.542Z,19.75
2017-12-15T10:02:50.747Z,18.75
2017-12-15T10:03:57.468Z,18.50
2017-12-15T10:05:02.410Z,20.30
2017-12-15T10:06:07.397Z,16.87
2017-12-15T10:07:11.135Z,24.08
2017-12-15T10:08:16.082Z,20.12
2017-12-15T10:09:20.864Z,20.30
2017-12-15T10:10:27.669Z,22.48
2017-12-15T10:11:33.196Z,22.55
2017-12-15T10:12:38.029Z,18.90
2017-12-15T10:13:43.977Z,22.08
2017-12-15T10:14:47.413Z,16.30
2017-12-15T10:15:51.442Z,21.60
2017-12-15T10:16:54.902Z,19.95
2017-12-15T10:17:59.523Z,19.98
2017-12-15T10:19:02.949Z,18.27
2017-12-15T10:20:07.159Z,17.35
2017-12-15T10:21:12.686Z,16.20
2017-12-15T10:22:19.461Z,20.80
2017-12-15T10:23:23.446Z,21.27
2017-12-15T10:24:29.056Z,26.12
2017-12-15T10:25:33.583Z,23.12
2017-12-15T10:26:39.471Z,18.35
2017-12-15T10:27:48.004Z,16.10
2017-12-15T10:28:53.644Z,14.40
2017-12-15T10:29:57.203Z,25.55
2017-12-15T10:31:00.065Z,21.87
2017-12-15T10:32:03.482Z,14.35
2017-12-15T10:33:06.432Z,16.48
2017-12-15T10:34:09.535Z,15.13
2017-12-15T10:35:13.446Z,18.98
2017-12-15T10:36:17.220Z,19.25
2017-12-15T10:37:20.425Z,16.17
2017-12-15T10:38:23.292Z,13.60
2017-12-15T10:39:28.267Z,15.82
2017-12-15T10:40:31.876Z,15.73
2017-12-15T10:41:36.019Z,15.07
2017-12-15T10:42:38.763Z,17.60
2017-12-15T10:43:41.278Z,19.00
2017-12-15T10:44:43.942Z,18.02
2017-12-15T10:45:46.458Z,18.05
2017-12-15T10:46:49.128Z,19.05
2017-12-15T10:47:52.142Z,16.90
2017-12-15T10:48:54.651Z,18.45
2017-12-15T10:49:58.925Z,18.17
2017-12-15T10:51:01.404Z,28.23
2017-12-15T10:52:03.894Z,21.62
2017-12-15T10:53:07.184Z,16.20
2017-12-15T10:54:09.893Z,22.05
2017-12-15T10:55:12.598Z,17.77
2017-12-15T10:56:15.121Z,21.12
2017-12-15T10:57:17.617Z,20.90
2017-12-15T10:58:20.116Z,18.02
2017-12-15T10:59:23.367Z,21.12
2017-12-15T11:00:27.347Z,18.20
2017-12-15T11:01:29.839Z,14.48
2017-12-15T11:02:32.340Z,19.30
2017-12-15T11:03:34.806Z,17.90
2017-12-15T11:04:37.325Z,25.58
2017-12-15T11:05:39.816Z,13.70
2017-12-15T11:06:43.125Z,20.50
2017-12-15T11:07:45.667Z,14.82
2017-12-15T11:08:48.932Z,23.65
2017-12-15T11:09:52.180Z,17.30
2017-12-15T11:10:54.669Z,19.67
2017-12-15T11:11:57.499Z,19.20
2017-12-15T11:13:00.027Z,13.82
2017-12-15T11:14:02.539Z,29.48
2017-12-15T11:15:05.054Z,22.50
2017-12-15T11:16:07.729Z,22.85
2017-12-15T11:17:10.274Z,20.37
2017-12-15T11:18:13.055Z,15.88
2017-12-15T11:19:17.386Z,21.17
2017-12-15T11:20:20.650Z,17.35
2017-12-15T11:21:23.911Z,27.05
2017-12-15T11:22:26.407Z,17.27
2017-12-15T11:23:28.904Z,24.23
2017-12-15T11:24:31.424Z,18.90
2017-12-15T11:25:33.940Z,19.62
2017-12-15T11:26:36.445Z,15.38
2017-12-15T11:27:38.973Z,15.88
2017-12-15T11:28:41.456Z,19.83
2017-12-15T11:29:43.999Z,23.23
2017-12-15T11:30:46.566Z,27.58
2017-12-15T11:31:49.140Z,16.60
2017-12-15T11:32:51.657Z,22.35
2017-12-15T11:33:56.872Z,19.77
2017-12-15T11:34:59.380Z,19.55
2017-12-15T11:36:02.639Z,18.12
2017-12-15T11:37:05.144Z,14.95
2017-12-15T11:38:07.829Z,19.67
2017-12-15T11:39:11.214Z,14.48
2017-12-15T11:40:13.899Z,10.93
2017-12-15T11:41:16.395Z,11.48
2017-12-15T11:42:19.989Z,11.50
2017-12-15T11:43:22.735Z,9.85
2017-12-15T11:44:25.398Z,18.73
2017-12-15T11:45:27.868Z,13.73
2017-12-15T11:46:30.357Z,9.95
2017-12-15T11:47:33.607Z,10.98
2017-12-15T11:48:36.124Z,11.10
2017-12-15T11:49:39.416Z,14.20
2017-12-15T11:50:42.676Z,13.02
2017-12-15T11:51:46.964Z,10.40
2017-12-15T11:52:49.445Z,18.58
2017-12-15T11:53:51.949Z,17.95
2017-12-15T11:54:54.447Z,13.98
2017-12-15T11:55:57.289Z,13.70
2017-12-15T11:56:59.858Z,7.80
2017-12-15T11:58:03.396Z,20.30
2017-12-15T11:59:05.893Z,10.52
2017-12-15T12:00:09.150Z,16.05
2017-12-15T12:01:11.840Z,13.60
2017-12-15T12:02:15.161Z,7.57
2017-12-15T12:03:17.675Z,14.30
2017-12-15T12:04:21.283Z,11.65
2017-12-15T12:05:24.663Z,14.55
2017-12-15T12:06:27.922Z,11.80
2017-12-15T12:07:30.881Z,9.13
2017-12-15T12:08:34.468Z,11.43
2017-12-15T12:09:37.743Z,11.75
2017-12-15T12:10:40.281Z,9.48
2017-12-15T12:11:43.562Z,9.02
2017-12-15T12:12:47.879Z,11.50
2017-12-15T12:13:51.363Z,11.55
2017-12-15T12:14:55.729Z,11.00
2017-12-15T12:15:58.329Z,15.73
2017-12-15T12:17:01.747Z,13.27
2017-12-15T12:18:04.323Z,11.55
2017-12-15T12:19:06.856Z,11.18
2017-12-15T12:20:10.302Z,12.25
2017-12-15T12:21:17.093Z,12.60
2017-12-15T12:22:19.573Z,9.73
2017-12-15T12:23:24.007Z,7.53
2017-12-15T12:24:26.504Z,5.78
2017-12-15T12:25:29.041Z,7.12
2017-12-15T12:26:31.535Z,10.63
2017-12-15T12:27:34.080Z,7.80
2017-12-15T12:28:36.586Z,14.73
2017-12-15T12:29:40.595Z,6.05
2017-12-15T12:30:44.129Z,10.23
2017-12-15T12:31:46.856Z,10.32
2017-12-15T12:32:50.124Z,10.50
2017-12-15T12:33:52.630Z,19.62
2017-12-15T12:34:55.886Z,7.32
2017-12-15T12:35:58.704Z,10.75
2017-12-15T12:37:01.179Z,7.45
2017-12-15T12:38:03.717Z,6.47
2017-12-15T12:39:07.001Z,7.50
2017-12-15T12:40:10.409Z,11.30
2017-12-15T12:41:13.288Z,6.20
2017-12-15T12:42:15.923Z,8.98
2017-12-15T12:43:19.319Z,12.68
2017-12-15T12:44:22.654Z,10.63
2017-12-15T12:45:25.166Z,8.43
2017-12-15T12:46:28.448Z,4.87
2017-12-15T12:47:30.968Z,12.35
2017-12-15T12:48:33.480Z,7.45
2017-12-15T12:49:36.740Z,10.45
2017-12-15T12:50:39.356Z,15.68
2017-12-15T12:51:41.876Z,5.47
2017-12-15T12:52:44.633Z,6.82
2017-12-15T12:53:47.159Z,11.73
2017-12-15T12:54:49.682Z,10.55
2017-12-15T12:55:52.198Z,8.05
2017-12-15T12:56:54.738Z,10.10
2017-12-15T12:57:58.050Z,11.43
2017-12-15T12:59:00.546Z,13.77
2017-12-15T13:00:03.048Z,13.70
2017-12-15T13:01:06.310Z,20.10
2017-12-15T13:02:08.829Z,12.10
2017-12-15T13:04:29.782Z,12.18
2017-12-15T13:05:32.267Z,8.85
2017-12-15T13:06:35.549Z,9.10
2017-12-15T13:07:38.799Z,6.65
2017-12-15T13:08:41.290Z,17.05
2017-12-15T13:09:45.015Z,11.18
2017-12-15T13:10:47.817Z,8.27
2017-12-15T13:11:50.348Z,12.88
2017-12-15T13:12:53.733Z,11.02
2017-12-15T13:13:56.259Z,12.70
2017-12-15T13:15:00.456Z,13.50
2017-12-15T13:16:04.476Z,11.38
2017-12-15T13:17:07.839Z,11.07
2017-12-15T13:18:12.835Z,8.23
2017-12-15T13:19:15.394Z,11.88
2017-12-15T13:20:18.159Z,11.50
2017-12-15T13:21:20.683Z,13.88
2017-12-15T13:22:23.260Z,10.52
2017-12-15T13:23:26.574Z,11.40
2017-12-15T13:24:29.083Z,9.88
2017-12-15T13:25:32.835Z,9.23
2017-12-15T13:26:35.357Z,9.90
2017-12-15T13:27:40.224Z,9.52
2017-12-15T13:28:42.761Z,9.95
2017-12-15T13:29:46.442Z,11.88
2017-12-15T13:30:49.376Z,9.70
2017-12-15T13:31:52.384Z,12.95
2017-12-15T13:32:56.433Z,7.60
2017-12-15T13:34:00.545Z,10.10
2017-12-15T13:35:03.918Z,8.77
2017-12-15T13:36:06.424Z,21.08
2017-12-15T13:37:08.939Z,8.30
2017-12-15T13:38:13.874Z,13.85
2017-12-15T13:39:16.898Z,11.32
2017-12-15T13:40:19.517Z,9.63
2017-12-15T13:41:22.790Z,10.43
2017-12-15T13:42:26.621Z,17.17
2017-12-15T13:43:29.288Z,6.78
2017-12-15T13:44:32.214Z,16.52
2017-12-15T13:45:35.639Z,10.30
2017-12-15T13:46:38.142Z,11.20
2017-12-15T13:47:42.165Z,20.83
2017-12-15T13:48:44.710Z,13.95
2017-12-15T13:49:47.795Z,9.35
2017-12-15T13:50:53.042Z,10.07
2017-12-15T13:51:55.565Z,7.55
2017-12-15T13:52:58.094Z,11.18
2017-12-15T13:54:01.702Z,7.82
2017-12-15T13:55:04.220Z,12.18
2017-12-15T13:56:06.787Z,13.25
2017-12-15T13:57:10.199Z,9.02
2017-12-15T13:58:13.588Z,12.05
2017-12-15T13:59:17.165Z,9.07
2017-12-15T14:00:20.464Z,8.65
2017-12-15T14:01:23.726Z,8.32
2017-12-15T14:02:27.013Z,7.97
2017-12-15T14:03:30.285Z,7.57
2017-12-15T14:04:32.810Z,12.63
2017-12-15T14:05:35.427Z,11.95
2017-12-15T14:06:38.076Z,9.95
2017-12-15T14:07:40.562Z,14.87
2017-12-15T14:08:43.073Z,10.52
2017-12-15T14:09:45.704Z,9.73
2017-12-15T14:10:48.220Z,10.75
2017-12-15T14:11:50.735Z,18.08
2017-12-15T14:12:54.024Z,8.07
2017-12-15T14:13:57.314Z,11.65
2017-12-15T14:15:00.577Z,7.90
2017-12-15T14:16:03.870Z,6.80
2017-12-15T14:17:07.184Z,9.90